createdAt,value
2018-07-24T00:00:57.730Z,99.99
2018-07-24T00:05:53.322Z,99.99
2018-07-24T00:10:49.346Z,99.99
2018-07-24T00:15:45.291Z,99.99
2018-07-24T00:20:41.880Z,98.49
2018-07-24T00:25:37.949Z,93.52
2018-07-24T00:30:35.056Z,92.89
2018-07-24T00:35:30.529Z,91.44
2018-07-24T00:40:27.389Z,90.86
2018-07-24T00:45:23.041Z,89.99
2018-07-24T00:50:19.064Z,89.85
2018-07-24T00:55:16.038Z,90.53
2018-07-24T01:00:12.019Z,91.83
2018-07-24T01:05:08.863Z,92.22
2018-07-24T01:10:05.494Z,94.15
2018-07-24T01:15:01.737Z,95.93
2018-07-24T01:19:57.753Z,96.80
2018-07-24T01:24:54.895Z,97.47
2018-07-24T01:29:51.861Z,96.12
2018-07-24T01:34:47.352Z,97.77
2018-07-24T01:39:44.320Z,98.82
2018-07-24T01:44:40.198Z,99.99
2018-07-24T01:49:35.971Z,99.99
2018-07-24T01:54:31.700Z,99.99
2018-07-24T01:59:27.578Z,99.99
2018-07-24T02:04:23.186Z,99.99
2018-07-24T02:09:18.916Z,99.99
2018-07-24T02:14:15.807Z,99.99
2018-07-24T02:19:11.298Z,99.99
2018-07-24T02:24:07.129Z,99.99
2018-07-24T02:29:02.959Z,99.99
2018-07-24T02:33:58.849Z,99.99
2018-07-24T02:38:54.515Z,99.99
2018-07-24T02:43:50.527Z,99.99
2018-07-24T02:48:47.307Z,99.99
2018-07-24T02:53:42.661Z,99.99
2018-07-24T02:58:38.300Z,99.99
2018-07-24T03:03:35.636Z,99.99
2018-07-24T03:08:31.245Z,99.99
2018-07-24T03:13:27.215Z,99.99
2018-07-24T03:18:23.036Z,99.99
2018-07-24T03:23:19.946Z,99.99
2018-07-24T03:28:16.601Z,99.99
2018-07-24T03:33:12.913Z,99.99
2018-07-24T03:38:08.892Z,99.99
2018-07-24T03:43:05.011Z,99.99
2018-07-24T03:48:01.144Z,99.99
2018-07-24T03:52:57.174Z,99.99
2018-07-24T03:57:54.921Z,99.99
2018-07-24T04:02:50.394Z,99.99
2018-07-24T04:07:46.539Z,99.99
2018-07-24T04:12:42.427Z,99.99
2018-07-24T04:17:38.666Z,99.99
2018-07-24T04:22:35.047Z,99.50
2018-07-24T04:27:31.273Z,97.47
2018-07-24T04:32:27.516Z,95.98
2018-07-24T04:37:23.912Z,90.87
2018-07-24T04:42:20.532Z,87.00
2018-07-24T04:47:17.016Z,83.95
2018-07-24T04:52:13.673Z,81.04
2018-07-24T04:57:10.374Z,78.85
2018-07-24T05:02:06.975Z,78.21
2018-07-24T05:07:04.189Z,78.17
2018-07-24T05:12:01.532Z,76.31
2018-07-24T05:16:58.220Z,75.09
2018-07-24T05:21:54.501Z,75.34
2018-07-24T05:26:50.448Z,77.14
2018-07-24T05:31:46.097Z,78.69
2018-07-24T05:36:41.998Z,78.02
2018-07-24T05:41:38.093Z,78.02
2018-07-24T05:46:35.189Z,77.67
2018-07-24T05:51:31.115Z,76.89
2018-07-24T05:56:28.324Z,76.35
2018-07-24T06:01:25.593Z,73.58
2018-07-24T06:06:21.591Z,74.74
2018-07-24T06:11:18.124Z,77.22
2018-07-24T06:16:13.689Z,79.17
2018-07-24T06:21:09.161Z,79.47
2018-07-24T06:26:04.675Z,81.07
2018-07-24T06:31:01.288Z,82.33
2018-07-24T06:35:57.075Z,82.91
2018-07-24T06:40:53.072Z,82.86
2018-07-24T06:45:51.097Z,81.35
2018-07-24T06:50:46.752Z,80.67
2018-07-24T06:55:42.572Z,81.40
2018-07-24T07:00:38.541Z,81.54
2018-07-24T07:05:34.651Z,81.54
2018-07-24T07:10:30.679Z,79.80
2018-07-24T07:15:26.620Z,79.25
2018-07-24T07:20:23.575Z,78.67
2018-07-24T07:25:19.294Z,77.32
2018-07-24T07:30:16.416Z,77.16
2018-07-24T07:35:12.303Z,75.61
2018-07-24T07:40:08.095Z,76.58
2018-07-24T07:45:04.289Z,72.74
2018-07-24T07:50:00.329Z,70.99
2018-07-24T07:54:56.666Z,70.39
2018-07-24T07:59:55.171Z,61.51
2018-07-24T08:04:55.713Z,55.98
2018-07-24T08:09:54.195Z,49.87
2018-07-24T08:14:53.414Z,45.63
2018-07-24T08:19:51.092Z,42.94
2018-07-24T08:24:48.637Z,41.63
2018-07-24T08:29:45.697Z,42.30
2018-07-24T08:34:42.432Z,40.94
2018-07-24T08:39:40.089Z,41.02
2018-07-24T08:44:36.161Z,42.47
2018-07-24T08:49:32.510Z,39.87
2018-07-24T08:54:29.577Z,38.81
2018-07-24T08:59:26.359Z,38.57
2018-07-24T09:04:24.191Z,35.88
2018-07-24T09:09:20.459Z,35.19
2018-07-24T09:14:17.036Z,33.90
2018-07-24T09:19:13.331Z,33.62
2018-07-24T09:24:09.808Z,34.28
2018-07-24T09:29:05.875Z,34.08
2018-07-24T09:34:01.957Z,33.97
2018-07-24T09:38:58.371Z,37.49
2018-07-24T09:43:53.532Z,41.05
2018-07-24T09:48:48.128Z,43.17
2018-07-24T09:53:44.314Z,43.07
2018-07-24T09:58:39.916Z,42.90
2018-07-24T10:03:36.384Z,40.55
2018-07-24T10:08:33.256Z,37.55
2018-07-24T10:13:29.843Z,40.72
2018-07-24T10:18:26.334Z,38.78
2018-07-24T10:23:23.103Z,36.13
2018-07-24T10:28:19.956Z,34.82
2018-07-24T10:33:16.954Z,33.89
2018-07-24T10:38:13.506Z,36.88
2018-07-24T10:43:10.332Z,39.76
2018-07-24T10:48:07.013Z,37.20
2018-07-24T10:53:03.384Z,34.69
2018-07-24T10:58:00.322Z,33.95
2018-07-24T11:02:57.393Z,33.20
2018-07-24T11:07:54.141Z,32.24
2018-07-24T11:12:50.981Z,31.54
2018-07-24T11:17:47.386Z,31.99
2018-07-24T11:22:44.285Z,34.03
2018-07-24T11:27:42.453Z,33.92
2018-07-24T11:32:39.222Z,33.42
2018-07-24T11:37:35.384Z,33.67
2018-07-24T11:42:33.063Z,32.10
2018-07-24T11:47:30.738Z,31.94
2018-07-24T11:52:27.217Z,31.45
2018-07-24T11:57:24.396Z,32.34
2018-07-24T12:02:20.470Z,30.65
2018-07-24T12:07:16.929Z,30.99
2018-07-24T12:12:12.518Z,34.74
2018-07-24T12:17:08.002Z,34.39
2018-07-24T12:22:04.101Z,33.82
2018-07-24T12:26:59.938Z,35.44
2018-07-24T12:31:56.093Z,31.90
2018-07-24T12:36:52.566Z,31.45
2018-07-24T12:41:48.878Z,33.13
2018-07-24T12:46:44.523Z,33.97
2018-07-24T12:51:39.800Z,34.25
2018-07-24T12:56:35.486Z,32.56
2018-07-24T13:01:32.104Z,30.43
2018-07-24T13:06:28.516Z,30.49
2018-07-24T13:11:24.559Z,32.37
2018-07-24T13:16:20.204Z,33.04
2018-07-24T13:21:16.744Z,32.42
2018-07-24T13:26:13.187Z,30.26
2018-07-24T13:31:09.246Z,31.75
2018-07-24T13:36:04.596Z,34.61
2018-07-24T13:40:59.407Z,34.86
2018-07-24T13:45:55.690Z,33.46
2018-07-24T13:50:52.186Z,31.70
2018-07-24T13:55:49.523Z,30.61
2018-07-24T14:00:45.709Z,34.28
2018-07-24T14:05:41.665Z,35.11
2018-07-24T14:10:37.495Z,34.94
2018-07-24T14:15:33.358Z,34.43
2018-07-24T14:20:30.291Z,34.99
2018-07-24T14:25:25.084Z,35.54
2018-07-24T14:30:20.319Z,37.48
2018-07-24T14:35:15.786Z,38.56
2018-07-24T14:40:11.383Z,37.37
2018-07-24T14:45:07.853Z,38.82
2018-07-24T14:50:03.093Z,37.52
2018-07-24T14:54:59.703Z,38.60
2018-07-24T14:59:56.545Z,38.68
2018-07-24T15:04:51.929Z,38.68
2018-07-24T15:09:48.892Z,39.07
2018-07-24T15:14:45.535Z,37.88
2018-07-24T15:19:41.033Z,40.14
2018-07-24T15:24:37.090Z,39.27
2018-07-24T15:29:33.193Z,39.56
2018-07-24T15:34:29.375Z,39.15
2018-07-24T15:39:25.393Z,39.74
2018-07-24T15:44:22.491Z,38.57
2018-07-24T15:49:18.184Z,39.45
2018-07-24T15:54:14.272Z,38.86
2018-07-24T15:59:11.322Z,38.76
2018-07-24T16:04:08.250Z,39.84
2018-07-24T16:09:04.045Z,39.72
2018-07-24T16:14:00.593Z,40.70
2018-07-24T16:18:57.623Z,39.84
2018-07-24T16:23:54.830Z,38.94
2018-07-24T16:28:51.123Z,39.06
2018-07-24T16:33:47.080Z,38.65
2018-07-24T16:38:44.414Z,38.86
2018-07-24T16:43:40.160Z,38.76
2018-07-24T16:48:36.170Z,38.94
2018-07-24T16:53:33.266Z,38.84
2018-07-24T16:58:29.137Z,38.86
2018-07-24T17:03:25.678Z,38.75
2018-07-24T17:08:21.763Z,41.29
2018-07-24T17:13:19.324Z,40.11
2018-07-24T17:18:16.069Z,39.23
2018-07-24T17:23:11.928Z,38.57
2018-07-24T17:28:08.170Z,39.92
2018-07-24T17:33:04.177Z,38.75
2018-07-24T17:38:00.197Z,40.50
2018-07-24T17:42:57.277Z,40.31
2018-07-24T17:47:53.225Z,40.19
2018-07-24T17:52:49.196Z,41.46
2018-07-24T17:57:46.461Z,40.39
2018-07-24T18:02:42.151Z,40.68
2018-07-24T18:07:39.398Z,39.31
2018-07-24T18:12:36.058Z,39.90
2018-07-24T18:17:31.848Z,41.93
2018-07-24T18:22:29.160Z,42.71
2018-07-24T18:27:24.848Z,46.62
2018-07-24T18:32:20.931Z,42.69
2018-07-24T18:37:16.895Z,44.28
2018-07-24T18:42:12.958Z,47.19
2018-07-24T18:47:08.918Z,49.32
2018-07-24T18:52:05.114Z,48.44
2018-07-24T18:57:02.413Z,49.90
2018-07-24T19:01:59.220Z,50.16
2018-07-24T19:06:54.847Z,49.85
2018-07-24T19:11:50.978Z,50.53
2018-07-24T19:16:46.893Z,51.41
2018-07-24T19:21:42.799Z,52.07
2018-07-24T19:26:38.923Z,50.80
2018-07-24T19:31:34.909Z,52.17
2018-07-24T19:36:30.741Z,55.68
2018-07-24T19:41:27.816Z,55.36
2018-07-24T19:46:24.651Z,54.26
2018-07-24T19:51:21.275Z,54.75
2018-07-24T19:56:17.041Z,55.91
2018-07-24T20:01:14.583Z,57.37
2018-07-24T20:06:11.699Z,57.25
2018-07-24T20:11:08.452Z,58.13
2018-07-24T20:16:04.029Z,58.91
2018-07-24T20:21:00.142Z,58.91
2018-07-24T20:25:56.459Z,58.03
2018-07-24T20:30:53.325Z,59.20
2018-07-24T20:35:49.122Z,59.36
2018-07-24T20:40:44.959Z,61.87
2018-07-24T20:45:41.758Z,61.08
2018-07-24T20:50:37.387Z,61.57
2018-07-24T20:55:33.793Z,61.77
2018-07-24T21:00:29.458Z,62.81
2018-07-24T21:05:25.472Z,62.58
2018-07-24T21:10:21.301Z,63.17
2018-07-24T21:15:17.306Z,64.14
2018-07-24T21:20:13.099Z,65.85
2018-07-24T21:25:10.119Z,66.34
2018-07-24T21:30:05.640Z,65.75
2018-07-24T21:35:01.735Z,66.82
2018-07-24T21:39:58.675Z,66.05
2018-07-24T21:44:54.482Z,66.82
2018-07-24T21:49:50.956Z,67.66
2018-07-24T21:54:47.131Z,66.92
2018-07-24T21:59:44.015Z,67.41
2018-07-24T22:04:40.762Z,67.47
2018-07-24T22:09:36.702Z,66.82
2018-07-24T22:14:32.594Z,66.79
2018-07-24T22:19:28.694Z,66.69
2018-07-24T22:24:24.515Z,65.95
2018-07-24T22:29:20.628Z,65.43
2018-07-24T22:34:16.818Z,65.82
2018-07-24T22:39:12.702Z,65.62
2018-07-24T22:44:09.185Z,65.05
2018-07-24T22:49:05.111Z,65.14
2018-07-24T22:54:01.049Z,65.79
2018-07-24T22:58:57.136Z,64.92
2018-07-24T23:03:52.970Z,64.04
2018-07-24T23:08:48.905Z,63.26
2018-07-24T23:13:44.946Z,64.33
2018-07-24T23:18:41.070Z,63.36
2018-07-24T23:23:38.076Z,64.40
2018-07-24T23:28:33.712Z,65.08
2018-07-24T23:33:29.872Z,64.78
2018-07-24T23:38:26.017Z,65.47
2018-07-24T23:43:21.883Z,67.27
2018-07-24T23:48:19.129Z,67.27
2018-07-24T23:53:14.784Z,67.85
2018-07-24T23:58:10.575Z,68.34
